sensor_id;sensor_type;location;lat;lon;timestamp;temperature;humidity
10433;DHT22;5263;48.680;9.004;2024-01-15T00:00:17;-2.20;99.90
10433;DHT22;5263;48.680;9.004;2024-01-15T00:02:43;-2.20;99.90
10433;DHT22;5263;48.680;9.004;2024-01-15T00:05:08;-2.20;99.90
10433;DHT22;5263;48.680;9.004;2024-01-15T00:07:34;-2.10;99.90
10433;DHT22;5263;48.680;9.004;2024-01-15T00:10:00;-2.10;99.90
10433;DHT22;5263;48.680;9.004;2024-01-15T00:12:26;-2.20;99.90
10433;DHT22;5263;48.680;9.004;2024-01-15T00:14:52;-2.10;99.90
10433;DHT22;5263;48.680;9.004;2024-01-15T00:17:18;-2.20;99.90
10433;DHT22;5263;48.680;9.004;2024-01-15T00:19:44;-2.30;99.90
10433;DHT22;5263;48.680;9.004;2024-01-15T00:22:09;-2.20;99.90
10433;DHT22;5263;48.680;9.004;2024-01-15T00:24:35;-2.20;99.90
10433;DHT22;5263;48.680;9.004;2024-01-15T00:27:00;-2.20;99.90
10433;DHT22;5263;48.680;9.004;2024-01-15T00:29:26;-2.30;99.90
10433;DHT22;5263;48.680;9.004;2024-01-15T00:31:51;-2.20;99.90
10433;DHT22;5263;48.680;9.004;2024-01-15T00:34:17;-2.10;99.90
10433;DHT22;5263;48.680;9.004;2024-01-15T00:36:42;-2.10;99.90
10433;DHT22;5263;48.680;9.004;2024-01-15T00:39:08;-2.00;99.90
10433;DHT22;5263;48.680;9.004;2024-01-15T00:41:36;-2.00;99.90
10433;DHT22;5263;48.680;9.004;2024-01-15T00:44:01;-1.90;99.90
10433;DHT22;5263;48.680;9.004;2024-01-15T00:46:28;-2.00;99.90
10433;DHT22;5263;48.680;9.004;2024-01-15T00:48:54;-2.10;99.90
10433;DHT22;5263;48.680;9.004;2024-01-15T00:51:19;-2.20;99.90
10433;DHT22;5263;48.680;9.004;2024-01-15T00:53:45;-2.20;99.90
10433;DHT22;5263;48.680;9.004;2024-01-15T00:56:11;-2.10;99.90
10433;DHT22;5263;48.680;9.004;2024-01-15T00:58:36;-2.20;99.90
10433;DHT22;5263;48.680;9.004;2024-01-15T01:01:02;-2.00;99.90
10433;DHT22;5263;48.680;9.004;2024-01-15T01:03:27;-2.10;99.90
10433;DHT22;5263;48.680;9.004;2024-01-15T01:05:53;-2.10;99.90
10433;DHT22;5263;48.680;9.004;2024-01-15T01:08:18;-2.10;99.90
10433;DHT22;5263;48.680;9.004;2024-01-15T01:10:44;-2.00;99.90
10433;DHT22;5263;48.680;9.004;2024-01-15T01:13:09;-2.00;99.90
10433;DHT22;5263;48.680;9.004;2024-01-15T01:15:35;-2.10;99.90
10433;DHT22;5263;48.680;9.004;2024-01-15T01:18:01;-2.00;99.90
10433;DHT22;5263;48.680;9.004;2024-01-15T01:20:26;-2.00;99.90
10433;DHT22;5263;48.680;9.004;2024-01-15T01:22:52;-2.10;99.90
10433;DHT22;5263;48.680;9.004;2024-01-15T01:25:17;-2.10;99.90
10433;DHT22;5263;48.680;9.004;2024-01-15T01:27:43;-2.20;99.90
10433;DHT22;5263;48.680;9.004;2024-01-15T01:30:09;-2.20;99.90
10433;DHT22;5263;48.680;9.004;2024-01-15T01:32:34;-2.20;99.90
10433;DHT22;5263;48.680;9.004;2024-01-15T01:35:00;-2.20;99.90
10433;DHT22;5263;48.680;9.004;2024-01-15T01:37:26;-2.20;99.90
10433;DHT22;5263;48.680;9.004;2024-01-15T01:39:51;-2.00;99.90
10433;DHT22;5263;48.680;9.004;2024-01-15T01:42:17;-2.10;99.90
10433;DHT22;5263;48.680;9.004;2024-01-15T01:44:42;-2.00;99.90
10433;DHT22;5263;48.680;9.004;2024-01-15T01:47:08;-2.00;99.90
10433;DHT22;5263;48.680;9.004;2024-01-15T01:49:34;-2.00;99.90
10433;DHT22;5263;48.680;9.004;2024-01-15T01:52:02;-1.90;99.90
10433;DHT22;5263;48.680;9.004;2024-01-15T01:54:32;-2.00;99.90
10433;DHT22;5263;48.680;9.004;2024-01-15T01:56:58;-1.90;99.90
10433;DHT22;5263;48.680;9.004;2024-01-15T01:59:25;-2.00;99.90
10433;DHT22;5263;48.680;9.004;2024-01-15T02:01:55;-2.00;99.90
10433;DHT22;5263;48.680;9.004;2024-01-15T02:04:25;-2.00;99.90
10433;DHT22;5263;48.680;9.004;2024-01-15T02:06:51;-2.10;99.90
10433;DHT22;5263;48.680;9.004;2024-01-15T02:09:18;-2.00;99.90
10433;DHT22;5263;48.680;9.004;2024-01-15T02:11:46;-2.10;99.90
10433;DHT22;5263;48.680;9.004;2024-01-15T02:14:11;-2.10;99.90
10433;DHT22;5263;48.680;9.004;2024-01-15T02:16:37;-2.10;99.90
10433;DHT22;5263;48.680;9.004;2024-01-15T02:19:02;-2.10;99.90
10433;DHT22;5263;48.680;9.004;2024-01-15T02:21:29;-2.20;99.90
10433;DHT22;5263;48.680;9.004;2024-01-15T02:23:56;-2.10;99.90
10433;DHT22;5263;48.680;9.004;2024-01-15T02:26:23;-2.10;99.90
10433;DHT22;5263;48.680;9.004;2024-01-15T02:28:48;-2.10;99.90
10433;DHT22;5263;48.680;9.004;2024-01-15T02:31:15;-2.20;99.90
10433;DHT22;5263;48.680;9.004;2024-01-15T02:33:42;-2.10;99.90
10433;DHT22;5263;48.680;9.004;2024-01-15T02:36:08;-2.20;99.90
10433;DHT22;5263;48.680;9.004;2024-01-15T02:38:33;-2.20;99.90
10433;DHT22;5263;48.680;9.004;2024-01-15T02:40:59;-2.20;99.90
10433;DHT22;5263;48.680;9.004;2024-01-15T02:43:25;-2.30;99.90
10433;DHT22;5263;48.680;9.004;2024-01-15T02:45:50;-2.40;99.90
10433;DHT22;5263;48.680;9.004;2024-01-15T02:48:16;-2.30;99.90
10433;DHT22;5263;48.680;9.004;2024-01-15T02:50:41;-2.40;99.90
10433;DHT22;5263;48.680;9.004;2024-01-15T02:53:07;-2.30;99.90
10433;DHT22;5263;48.680;9.004;2024-01-15T02:55:32;-2.40;99.90
10433;DHT22;5263;48.680;9.004;2024-01-15T02:57:58;-2.40;99.90
10433;DHT22;5263;48.680;9.004;2024-01-15T03:00:24;-2.40;99.90
10433;DHT22;5263;48.680;9.004;2024-01-15T03:02:50;-2.50;99.90
10433;DHT22;5263;48.680;9.004;2024-01-15T03:05:16;-2.50;99.90
10433;DHT22;5263;48.680;9.004;2024-01-15T03:07:43;-2.50;99.90
10433;DHT22;5263;48.680;9.004;2024-01-15T03:10:09;-2.50;99.90
10433;DHT22;5263;48.680;9.004;2024-01-15T03:12:34;-2.30;99.90
10433;DHT22;5263;48.680;9.004;2024-01-15T03:15:00;-2.40;99.90
10433;DHT22;5263;48.680;9.004;2024-01-15T03:17:26;-2.40;99.90
10433;DHT22;5263;48.680;9.004;2024-01-15T03:19:51;-2.30;99.90
10433;DHT22;5263;48.680;9.004;2024-01-15T03:22:17;-2.40;99.90
10433;DHT22;5263;48.680;9.004;2024-01-15T03:24:43;-2.30;99.90
10433;DHT22;5263;48.680;9.004;2024-01-15T03:27:09;-2.20;99.90
10433;DHT22;5263;48.680;9.004;2024-01-15T03:29:34;-2.30;99.90
10433;DHT22;5263;48.680;9.004;2024-01-15T03:32:00;-2.20;99.90
10433;DHT22;5263;48.680;9.004;2024-01-15T03:34:25;-2.20;99.90
10433;DHT22;5263;48.680;9.004;2024-01-15T03:36:51;-2.10;99.90
10433;DHT22;5263;48.680;9.004;2024-01-15T03:39:16;-2.10;99.90
10433;DHT22;5263;48.680;9.004;2024-01-15T03:41:42;-2.00;99.90
10433;DHT22;5263;48.680;9.004;2024-01-15T03:44:08;-1.80;99.90
10433;DHT22;5263;48.680;9.004;2024-01-15T03:46:33;-1.70;99.90
10433;DHT22;5263;48.680;9.004;2024-01-15T03:48:59;-1.60;99.90
10433;DHT22;5263;48.680;9.004;2024-01-15T03:51:24;-1.60;99.90
10433;DHT22;5263;48.680;9.004;2024-01-15T03:53:50;-1.60;99.90
10433;DHT22;5263;48.680;9.004;2024-01-15T03:56:16;-1.50;99.90
10433;DHT22;5263;48.680;9.004;2024-01-15T03:58:41;-1.60;99.90
10433;DHT22;5263;48.680;9.004;2024-01-15T04:01:10;-1.60;99.90
10433;DHT22;5263;48.680;9.004;2024-01-15T04:03:36;-1.50;99.90
10433;DHT22;5263;48.680;9.004;2024-01-15T04:06:02;-1.60;99.90
10433;DHT22;5263;48.680;9.004;2024-01-15T04:08:27;-1.60;99.90
10433;DHT22;5263;48.680;9.004;2024-01-15T04:10:53;-1.50;99.90
10433;DHT22;5263;48.680;9.004;2024-01-15T04:13:18;-1.50;99.90
10433;DHT22;5263;48.680;9.004;2024-01-15T04:15:44;-1.50;99.90
10433;DHT22;5263;48.680;9.004;2024-01-15T04:18:09;-1.50;99.90
10433;DHT22;5263;48.680;9.004;2024-01-15T04:20:35;-1.50;99.90
10433;DHT22;5263;48.680;9.004;2024-01-15T04:23:01;-1.60;99.90
10433;DHT22;5263;48.680;9.004;2024-01-15T04:25:26;-1.50;99.90
10433;DHT22;5263;48.680;9.004;2024-01-15T04:27:52;-1.50;99.90
10433;DHT22;5263;48.680;9.004;2024-01-15T04:30:17;-1.50;99.90
10433;DHT22;5263;48.680;9.004;2024-01-15T04:32:43;-1.50;99.90
10433;DHT22;5263;48.680;9.004;2024-01-15T04:35:08;-1.50;99.90
10433;DHT22;5263;48.680;9.004;2024-01-15T04:37:34;-1.50;99.90
10433;DHT22;5263;48.680;9.004;2024-01-15T04:39:59;-1.40;99.90
10433;DHT22;5263;48.680;9.004;2024-01-15T04:42:25;-1.50;99.90
10433;DHT22;5263;48.680;9.004;2024-01-15T04:44:51;-1.50;99.90
10433;DHT22;5263;48.680;9.004;2024-01-15T04:47:16;-1.50;99.90
10433;DHT22;5263;48.680;9.004;2024-01-15T04:49:42;-1.50;99.90
10433;DHT22;5263;48.680;9.004;2024-01-15T04:52:08;-1.50;99.90
10433;DHT22;5263;48.680;9.004;2024-01-15T04:54:35;-1.50;99.90
10433;DHT22;5263;48.680;9.004;2024-01-15T04:57:01;-1.50;99.90
10433;DHT22;5263;48.680;9.004;2024-01-15T04:59:27;-1.50;99.90
10433;DHT22;5263;48.680;9.004;2024-01-15T05:01:53;-1.50;99.90
10433;DHT22;5263;48.680;9.004;2024-01-15T05:04:19;-1.50;99.90
10433;DHT22;5263;48.680;9.004;2024-01-15T05:06:44;-1.60;99.90
10433;DHT22;5263;48.680;9.004;2024-01-15T05:09:10;-1.60;99.90
10433;DHT22;5263;48.680;9.004;2024-01-15T05:11:35;-1.50;99.90
10433;DHT22;5263;48.680;9.004;2024-01-15T05:14:01;-1.50;99.90
10433;DHT22;5263;48.680;9.004;2024-01-15T05:16:26;-1.50;99.90
10433;DHT22;5263;48.680;9.004;2024-01-15T05:18:52;-1.50;99.90
10433;DHT22;5263;48.680;9.004;2024-01-15T05:21:17;-1.50;99.90
10433;DHT22;5263;48.680;9.004;2024-01-15T05:23:43;-1.50;99.90
10433;DHT22;5263;48.680;9.004;2024-01-15T05:26:08;-1.60;99.90
10433;DHT22;5263;48.680;9.004;2024-01-15T05:28:34;-1.50;99.90
10433;DHT22;5263;48.680;9.004;2024-01-15T05:31:01;-1.50;99.90
10433;DHT22;5263;48.680;9.004;2024-01-15T05:33:26;-1.60;99.90
10433;DHT22;5263;48.680;9.004;2024-01-15T05:35:52;-1.50;99.90
10433;DHT22;5263;48.680;9.004;2024-01-15T05:38:19;-1.50;99.90
10433;DHT22;5263;48.680;9.004;2024-01-15T05:40:45;-1.60;99.90
10433;DHT22;5263;48.680;9.004;2024-01-15T05:43:10;-1.60;99.90
10433;DHT22;5263;48.680;9.004;2024-01-15T05:45:38;-1.60;99.90
10433;DHT22;5263;48.680;9.004;2024-01-15T05:48:04;-1.60;99.90
10433;DHT22;5263;48.680;9.004;2024-01-15T05:50:29;-1.60;99.90
10433;DHT22;5263;48.680;9.004;2024-01-15T05:52:55;-1.60;99.90
10433;DHT22;5263;48.680;9.004;2024-01-15T05:55:20;-1.60;99.90
10433;DHT22;5263;48.680;9.004;2024-01-15T05:57:46;-1.60;99.90
10433;DHT22;5263;48.680;9.004;2024-01-15T06:00:12;-1.60;99.90
10433;DHT22;5263;48.680;9.004;2024-01-15T06:02:38;-1.60;99.90
10433;DHT22;5263;48.680;9.004;2024-01-15T06:05:04;-1.50;99.90
10433;DHT22;5263;48.680;9.004;2024-01-15T06:07:30;-1.60;99.90
10433;DHT22;5263;48.680;9.004;2024-01-15T06:09:56;-1.60;99.90
10433;DHT22;5263;48.680;9.004;2024-01-15T06:12:22;-1.60;99.90
10433;DHT22;5263;48.680;9.004;2024-01-15T06:14:48;-1.50;99.90
10433;DHT22;5263;48.680;9.004;2024-01-15T06:17:14;-1.50;99.90
10433;DHT22;5263;48.680;9.004;2024-01-15T06:19:39;-1.60;99.90
10433;DHT22;5263;48.680;9.004;2024-01-15T06:22:05;-1.60;99.90
10433;DHT22;5263;48.680;9.004;2024-01-15T06:24:31;-1.60;99.90
10433;DHT22;5263;48.680;9.004;2024-01-15T06:26:56;-1.60;99.90
10433;DHT22;5263;48.680;9.004;2024-01-15T06:29:25;-1.50;99.90
10433;DHT22;5263;48.680;9.004;2024-01-15T06:31:50;-1.60;99.90
10433;DHT22;5263;48.680;9.004;2024-01-15T06:34:16;-1.50;99.90
10433;DHT22;5263;48.680;9.004;2024-01-15T06:36:41;-1.50;99.90
10433;DHT22;5263;48.680;9.004;2024-01-15T06:39:07;-1.50;99.90
10433;DHT22;5263;48.680;9.004;2024-01-15T06:41:32;-1.50;99.90
10433;DHT22;5263;48.680;9.004;2024-01-15T06:43:58;-1.50;99.90
10433;DHT22;5263;48.680;9.004;2024-01-15T06:46:24;-1.50;99.90
10433;DHT22;5263;48.680;9.004;2024-01-15T06:48:49;-1.50;99.90
10433;DHT22;5263;48.680;9.004;2024-01-15T06:51:16;-1.40;99.90
10433;DHT22;5263;48.680;9.004;2024-01-15T06:53:41;-1.40;99.90
10433;DHT22;5263;48.680;9.004;2024-01-15T06:56:07;-1.40;99.90
10433;DHT22;5263;48.680;9.004;2024-01-15T06:58:33;-1.40;99.90
10433;DHT22;5263;48.680;9.004;2024-01-15T07:00:59;-1.40;99.90
10433;DHT22;5263;48.680;9.004;2024-01-15T07:03:25;-1.40;99.90
10433;DHT22;5263;48.680;9.004;2024-01-15T07:05:50;-1.50;99.90
10433;DHT22;5263;48.680;9.004;2024-01-15T07:08:16;-1.50;99.90
10433;DHT22;5263;48.680;9.004;2024-01-15T07:10:41;-1.50;99.90
10433;DHT22;5263;48.680;9.004;2024-01-15T07:13:07;-1.50;99.90
10433;DHT22;5263;48.680;9.004;2024-01-15T07:15:33;-1.40;99.90
10433;DHT22;5263;48.680;9.004;2024-01-15T07:17:58;-1.40;99.90
10433;DHT22;5263;48.680;9.004;2024-01-15T07:20:24;-1.40;99.90
10433;DHT22;5263;48.680;9.004;2024-01-15T07:22:49;-1.40;99.90
10433;DHT22;5263;48.680;9.004;2024-01-15T07:25:16;-1.40;99.90
10433;DHT22;5263;48.680;9.004;2024-01-15T07:27:41;-1.40;99.90
10433;DHT22;5263;48.680;9.004;2024-01-15T07:30:11;-1.40;99.90
10433;DHT22;5263;48.680;9.004;2024-01-15T07:32:37;-1.30;99.90
10433;DHT22;5263;48.680;9.004;2024-01-15T07:35:03;-1.30;99.90
10433;DHT22;5263;48.680;9.004;2024-01-15T07:37:28;-1.30;99.90
10433;DHT22;5263;48.680;9.004;2024-01-15T07:39:54;-1.30;99.90
10433;DHT22;5263;48.680;9.004;2024-01-15T07:42:19;-1.20;99.90
10433;DHT22;5263;48.680;9.004;2024-01-15T07:44:45;-1.10;99.90
10433;DHT22;5263;48.680;9.004;2024-01-15T07:47:11;-1.20;99.90
10433;DHT22;5263;48.680;9.004;2024-01-15T07:49:37;-1.20;99.90
10433;DHT22;5263;48.680;9.004;2024-01-15T07:52:02;-1.20;99.90
10433;DHT22;5263;48.680;9.004;2024-01-15T07:54:30;-1.20;99.90
10433;DHT22;5263;48.680;9.004;2024-01-15T07:57:00;-1.10;99.90
10433;DHT22;5263;48.680;9.004;2024-01-15T07:59:27;-1.20;99.90
10433;DHT22;5263;48.680;9.004;2024-01-15T08:01:53;-1.10;99.90
10433;DHT22;5263;48.680;9.004;2024-01-15T08:04:19;-1.00;99.90
10433;DHT22;5263;48.680;9.004;2024-01-15T08:06:45;-1.10;99.90
10433;DHT22;5263;48.680;9.004;2024-01-15T08:09:11;-1.10;99.90
10433;DHT22;5263;48.680;9.004;2024-01-15T08:11:39;-1.00;99.90
10433;DHT22;5263;48.680;9.004;2024-01-15T08:14:07;-1.00;99.90
10433;DHT22;5263;48.680;9.004;2024-01-15T08:16:32;-1.10;99.90
10433;DHT22;5263;48.680;9.004;2024-01-15T08:18:58;-1.10;99.90
10433;DHT22;5263;48.680;9.004;2024-01-15T08:21:23;-1.10;99.90
10433;DHT22;5263;48.680;9.004;2024-01-15T08:23:49;-1.00;99.90
10433;DHT22;5263;48.680;9.004;2024-01-15T08:26:14;-1.00;99.90
10433;DHT22;5263;48.680;9.004;2024-01-15T08:28:40;-1.00;99.90
10433;DHT22;5263;48.680;9.004;2024-01-15T08:31:05;-0.80;99.90
10433;DHT22;5263;48.680;9.004;2024-01-15T08:33:31;-0.80;99.90
10433;DHT22;5263;48.680;9.004;2024-01-15T08:35:56;-0.70;99.90
10433;DHT22;5263;48.680;9.004;2024-01-15T08:38:22;-0.70;99.90
10433;DHT22;5263;48.680;9.004;2024-01-15T08:40:49;-0.60;99.90
10433;DHT22;5263;48.680;9.004;2024-01-15T08:43:14;-0.70;99.90
10433;DHT22;5263;48.680;9.004;2024-01-15T08:45:40;-0.60;99.90
10433;DHT22;5263;48.680;9.004;2024-01-15T08:48:06;-0.50;99.90
10433;DHT22;5263;48.680;9.004;2024-01-15T08:50:32;-0.50;99.90
10433;DHT22;5263;48.680;9.004;2024-01-15T08:52:58;-0.40;99.90
10433;DHT22;5263;48.680;9.004;2024-01-15T08:55:24;-0.30;99.90
10433;DHT22;5263;48.680;9.004;2024-01-15T08:57:50;-0.40;99.90
10433;DHT22;5263;48.680;9.004;2024-01-15T09:00:16;-0.40;99.90
10433;DHT22;5263;48.680;9.004;2024-01-15T09:02:42;-0.40;99.90
10433;DHT22;5263;48.680;9.004;2024-01-15T09:05:08;-0.40;99.90
10433;DHT22;5263;48.680;9.004;2024-01-15T09:07:33;-0.40;99.90
10433;DHT22;5263;48.680;9.004;2024-01-15T09:09:59;-0.40;99.90
10433;DHT22;5263;48.680;9.004;2024-01-15T09:12:25;-0.40;99.90
10433;DHT22;5263;48.680;9.004;2024-01-15T09:14:51;-0.30;99.90
10433;DHT22;5263;48.680;9.004;2024-01-15T09:17:19;-0.30;99.90
10433;DHT22;5263;48.680;9.004;2024-01-15T09:19:44;-0.30;99.90
10433;DHT22;5263;48.680;9.004;2024-01-15T09:22:12;-0.30;99.90
10433;DHT22;5263;48.680;9.004;2024-01-15T09:24:40;-0.30;99.90
10433;DHT22;5263;48.680;9.004;2024-01-15T09:27:07;-0.40;99.90
10433;DHT22;5263;48.680;9.004;2024-01-15T09:29:32;-0.40;99.90
10433;DHT22;5263;48.680;9.004;2024-01-15T09:31:58;-0.30;99.90
10433;DHT22;5263;48.680;9.004;2024-01-15T09:34:24;-0.30;99.90
10433;DHT22;5263;48.680;9.004;2024-01-15T09:36:49;-0.20;99.90
10433;DHT22;5263;48.680;9.004;2024-01-15T09:39:15;-0.20;99.90
10433;DHT22;5263;48.680;9.004;2024-01-15T09:41:41;0.00;99.90
10433;DHT22;5263;48.680;9.004;2024-01-15T09:44:08;0.00;99.90
10433;DHT22;5263;48.680;9.004;2024-01-15T09:46:35;0.00;99.90
10433;DHT22;5263;48.680;9.004;2024-01-15T09:49:01;-0.10;99.90
10433;DHT22;5263;48.680;9.004;2024-01-15T09:51:31;-0.10;99.90
10433;DHT22;5263;48.680;9.004;2024-01-15T09:53:57;-0.10;99.90
10433;DHT22;5263;48.680;9.004;2024-01-15T09:56:24;0.10;99.90
10433;DHT22;5263;48.680;9.004;2024-01-15T09:58:50;0.10;99.90
10433;DHT22;5263;48.680;9.004;2024-01-15T10:01:20;0.10;99.90
10433;DHT22;5263;48.680;9.004;2024-01-15T10:03:46;0.00;99.90
10433;DHT22;5263;48.680;9.004;2024-01-15T10:06:16;0.10;99.90
10433;DHT22;5263;48.680;9.004;2024-01-15T10:08:48;0.10;99.90
10433;DHT22;5263;48.680;9.004;2024-01-15T10:11:15;0.10;99.90
10433;DHT22;5263;48.680;9.004;2024-01-15T10:13:40;0.00;99.90
10433;DHT22;5263;48.680;9.004;2024-01-15T10:16:06;0.00;99.90
10433;DHT22;5263;48.680;9.004;2024-01-15T10:18:32;0.10;99.90
10433;DHT22;5263;48.680;9.004;2024-01-15T10:20:58;0.00;99.90
10433;DHT22;5263;48.680;9.004;2024-01-15T10:23:24;0.10;99.90
10433;DHT22;5263;48.680;9.004;2024-01-15T10:25:50;0.10;99.90
10433;DHT22;5263;48.680;9.004;2024-01-15T10:28:18;0.10;99.90
10433;DHT22;5263;48.680;9.004;2024-01-15T10:30:45;0.10;99.90
10433;DHT22;5263;48.680;9.004;2024-01-15T10:33:10;0.20;99.90
10433;DHT22;5263;48.680;9.004;2024-01-15T10:35:37;0.10;99.90
10433;DHT22;5263;48.680;9.004;2024-01-15T10:38:03;0.10;99.90
10433;DHT22;5263;48.680;9.004;2024-01-15T10:40:30;0.20;99.90
10433;DHT22;5263;48.680;9.004;2024-01-15T10:42:56;0.20;99.90
10433;DHT22;5263;48.680;9.004;2024-01-15T10:45:22;0.30;99.90
10433;DHT22;5263;48.680;9.004;2024-01-15T10:47:48;0.20;99.90
10433;DHT22;5263;48.680;9.004;2024-01-15T10:50:14;0.30;99.90
10433;DHT22;5263;48.680;9.004;2024-01-15T10:52:40;0.30;99.90
10433;DHT22;5263;48.680;9.004;2024-01-15T10:55:07;0.40;99.90
10433;DHT22;5263;48.680;9.004;2024-01-15T10:57:37;0.30;99.90
10433;DHT22;5263;48.680;9.004;2024-01-15T11:00:06;0.10;99.90
10433;DHT22;5263;48.680;9.004;2024-01-15T11:02:33;0.10;99.90
10433;DHT22;5263;48.680;9.004;2024-01-15T11:04:59;0.00;99.90
10433;DHT22;5263;48.680;9.004;2024-01-15T11:07:26;0.00;99.90
10433;DHT22;5263;48.680;9.004;2024-01-15T11:09:52;0.00;99.90
10433;DHT22;5263;48.680;9.004;2024-01-15T11:12:18;-0.10;99.90
10433;DHT22;5263;48.680;9.004;2024-01-15T11:14:49;-0.10;99.90
10433;DHT22;5263;48.680;9.004;2024-01-15T11:17:16;0.00;99.90
10433;DHT22;5263;48.680;9.004;2024-01-15T11:19:43;-0.10;99.90
10433;DHT22;5263;48.680;9.004;2024-01-15T11:22:10;-0.10;99.90
10433;DHT22;5263;48.680;9.004;2024-01-15T11:24:43;-0.10;99.90
10433;DHT22;5263;48.680;9.004;2024-01-15T11:27:09;-0.10;99.90
10433;DHT22;5263;48.680;9.004;2024-01-15T11:29:36;0.00;99.90
10433;DHT22;5263;48.680;9.004;2024-01-15T11:32:09;0.10;99.90
10433;DHT22;5263;48.680;9.004;2024-01-15T11:34:56;0.20;99.90
10433;DHT22;5263;48.680;9.004;2024-01-15T11:37:28;0.20;99.90
10433;DHT22;5263;48.680;9.004;2024-01-15T11:39:56;0.20;99.90
10433;DHT22;5263;48.680;9.004;2024-01-15T11:42:22;0.10;99.90
10433;DHT22;5263;48.680;9.004;2024-01-15T11:44:49;0.10;99.90
10433;DHT22;5263;48.680;9.004;2024-01-15T11:47:15;0.00;99.90
10433;DHT22;5263;48.680;9.004;2024-01-15T11:50:01;-0.10;99.90
10433;DHT22;5263;48.680;9.004;2024-01-15T11:52:34;0.10;99.90
10433;DHT22;5263;48.680;9.004;2024-01-15T11:57:54;0.00;99.90
10433;DHT22;5263;48.680;9.004;2024-01-15T12:00:20;-0.10;99.90
10433;DHT22;5263;48.680;9.004;2024-01-15T12:02:47;-0.20;99.90
10433;DHT22;5263;48.680;9.004;2024-01-15T12:05:17;-0.20;99.90
10433;DHT22;5263;48.680;9.004;2024-01-15T12:07:45;-0.30;99.90
10433;DHT22;5263;48.680;9.004;2024-01-15T12:10:12;-0.30;99.90
10433;DHT22;5263;48.680;9.004;2024-01-15T12:15:15;-0.40;99.90
10433;DHT22;5263;48.680;9.004;2024-01-15T12:17:41;-0.50;99.90
10433;DHT22;5263;48.680;9.004;2024-01-15T12:20:07;-0.50;99.90
10433;DHT22;5263;48.680;9.004;2024-01-15T12:22:32;-0.70;99.90
10433;DHT22;5263;48.680;9.004;2024-01-15T12:24:58;-0.80;99.90
10433;DHT22;5263;48.680;9.004;2024-01-15T12:27:24;-0.70;99.90
10433;DHT22;5263;48.680;9.004;2024-01-15T12:29:50;-0.70;99.90
10433;DHT22;5263;48.680;9.004;2024-01-15T12:32:16;-0.60;99.90
10433;DHT22;5263;48.680;9.004;2024-01-15T12:34:42;-0.70;99.90
10433;DHT22;5263;48.680;9.004;2024-01-15T12:37:08;-0.60;99.90
10433;DHT22;5263;48.680;9.004;2024-01-15T12:39:34;-0.60;99.90
10433;DHT22;5263;48.680;9.004;2024-01-15T12:42:01;-0.50;99.90
10433;DHT22;5263;48.680;9.004;2024-01-15T12:44:28;-0.60;99.90
10433;DHT22;5263;48.680;9.004;2024-01-15T12:46:53;-0.60;99.90
10433;DHT22;5263;48.680;9.004;2024-01-15T12:49:19;-0.60;99.90
10433;DHT22;5263;48.680;9.004;2024-01-15T12:51:52;-0.70;99.90
10433;DHT22;5263;48.680;9.004;2024-01-15T12:54:18;-0.80;99.90
10433;DHT22;5263;48.680;9.004;2024-01-15T12:56:44;-0.80;99.90
10433;DHT22;5263;48.680;9.004;2024-01-15T12:59:10;-0.70;99.90
10433;DHT22;5263;48.680;9.004;2024-01-15T13:01:35;-0.70;99.90
10433;DHT22;5263;48.680;9.004;2024-01-15T13:04:01;-0.70;99.90
10433;DHT22;5263;48.680;9.004;2024-01-15T13:06:27;-0.80;99.90
10433;DHT22;5263;48.680;9.004;2024-01-15T13:08:52;-0.80;99.90
10433;DHT22;5263;48.680;9.004;2024-01-15T13:11:18;-0.70;99.90
10433;DHT22;5263;48.680;9.004;2024-01-15T13:13:43;-0.70;99.90
10433;DHT22;5263;48.680;9.004;2024-01-15T13:16:09;-0.70;99.90
10433;DHT22;5263;48.680;9.004;2024-01-15T13:18:34;-0.70;99.90
10433;DHT22;5263;48.680;9.004;2024-01-15T13:21:00;-0.70;99.90
10433;DHT22;5263;48.680;9.004;2024-01-15T13:23:28;-0.70;99.90
10433;DHT22;5263;48.680;9.004;2024-01-15T13:25:53;-0.70;99.90
10433;DHT22;5263;48.680;9.004;2024-01-15T13:28:19;-0.70;99.90
10433;DHT22;5263;48.680;9.004;2024-01-15T13:30:44;-0.70;99.90
10433;DHT22;5263;48.680;9.004;2024-01-15T13:33:10;-0.80;99.90
10433;DHT22;5263;48.680;9.004;2024-01-15T13:35:35;-0.80;99.90
10433;DHT22;5263;48.680;9.004;2024-01-15T13:38:01;-0.70;99.90
10433;DHT22;5263;48.680;9.004;2024-01-15T13:40:27;-0.60;99.90
10433;DHT22;5263;48.680;9.004;2024-01-15T13:42:52;-0.70;99.90
10433;DHT22;5263;48.680;9.004;2024-01-15T13:45:19;-0.70;99.90
10433;DHT22;5263;48.680;9.004;2024-01-15T13:47:45;-0.70;99.90
10433;DHT22;5263;48.680;9.004;2024-01-15T13:50:11;-0.70;99.90
10433;DHT22;5263;48.680;9.004;2024-01-15T13:52:37;-0.80;99.90
10433;DHT22;5263;48.680;9.004;2024-01-15T13:55:03;-0.80;99.90
10433;DHT22;5263;48.680;9.004;2024-01-15T13:57:29;-0.80;99.90
10433;DHT22;5263;48.680;9.004;2024-01-15T13:59:54;-0.70;99.90
10433;DHT22;5263;48.680;9.004;2024-01-15T14:02:20;-0.70;99.90
10433;DHT22;5263;48.680;9.004;2024-01-15T14:04:46;-0.60;99.90
10433;DHT22;5263;48.680;9.004;2024-01-15T14:07:12;-0.60;99.90
10433;DHT22;5263;48.680;9.004;2024-01-15T14:09:38;-0.70;99.90
10433;DHT22;5263;48.680;9.004;2024-01-15T14:12:04;-0.70;99.90
10433;DHT22;5263;48.680;9.004;2024-01-15T14:14:29;-0.70;99.90
10433;DHT22;5263;48.680;9.004;2024-01-15T14:16:55;-0.70;99.90
10433;DHT22;5263;48.680;9.004;2024-01-15T14:19:21;-0.80;99.90
10433;DHT22;5263;48.680;9.004;2024-01-15T14:21:46;-0.70;99.90
10433;DHT22;5263;48.680;9.004;2024-01-15T14:24:12;-0.60;99.90
10433;DHT22;5263;48.680;9.004;2024-01-15T14:26:37;-0.50;99.90
10433;DHT22;5263;48.680;9.004;2024-01-15T14:29:03;-0.50;99.90
10433;DHT22;5263;48.680;9.004;2024-01-15T14:31:28;-0.40;99.90
10433;DHT22;5263;48.680;9.004;2024-01-15T14:33:54;-0.40;99.90
10433;DHT22;5263;48.680;9.004;2024-01-15T14:36:20;-0.40;99.90
10433;DHT22;5263;48.680;9.004;2024-01-15T14:38:46;-0.50;99.90
10433;DHT22;5263;48.680;9.004;2024-01-15T14:41:11;-0.40;99.90
10433;DHT22;5263;48.680;9.004;2024-01-15T14:43:37;-0.50;99.90
10433;DHT22;5263;48.680;9.004;2024-01-15T14:46:03;-0.40;99.90
10433;DHT22;5263;48.680;9.004;2024-01-15T14:48:28;-0.40;99.90
10433;DHT22;5263;48.680;9.004;2024-01-15T14:50:55;-0.30;99.90
10433;DHT22;5263;48.680;9.004;2024-01-15T14:53:20;-0.40;99.90
10433;DHT22;5263;48.680;9.004;2024-01-15T14:55:46;-0.50;99.90
10433;DHT22;5263;48.680;9.004;2024-01-15T14:58:12;-0.50;99.90
10433;DHT22;5263;48.680;9.004;2024-01-15T15:00:37;-0.50;99.90
10433;DHT22;5263;48.680;9.004;2024-01-15T15:03:03;-0.60;99.90
10433;DHT22;5263;48.680;9.004;2024-01-15T15:05:29;-0.60;99.90
10433;DHT22;5263;48.680;9.004;2024-01-15T15:07:54;-0.60;99.90
10433;DHT22;5263;48.680;9.004;2024-01-15T15:10:20;-0.70;99.90
10433;DHT22;5263;48.680;9.004;2024-01-15T15:12:45;-0.70;99.90
10433;DHT22;5263;48.680;9.004;2024-01-15T15:15:11;-0.70;99.90
10433;DHT22;5263;48.680;9.004;2024-01-15T15:17:37;-0.70;99.90
10433;DHT22;5263;48.680;9.004;2024-01-15T15:20:05;-0.70;99.90
10433;DHT22;5263;48.680;9.004;2024-01-15T15:22:31;-0.70;99.90
10433;DHT22;5263;48.680;9.004;2024-01-15T15:24:57;-0.80;99.90
10433;DHT22;5263;48.680;9.004;2024-01-15T15:27:22;-0.70;99.90
10433;DHT22;5263;48.680;9.004;2024-01-15T15:29:48;-0.80;99.90
10433;DHT22;5263;48.680;9.004;2024-01-15T15:32:15;-0.90;99.90
10433;DHT22;5263;48.680;9.004;2024-01-15T15:34:41;-0.90;99.90
10433;DHT22;5263;48.680;9.004;2024-01-15T15:37:06;-0.90;99.90
10433;DHT22;5263;48.680;9.004;2024-01-15T15:39:32;-0.90;99.90
10433;DHT22;5263;48.680;9.004;2024-01-15T15:41:57;-0.90;99.90
10433;DHT22;5263;48.680;9.004;2024-01-15T15:44:23;-0.90;99.90